createdAt,value
2023-03-27T00:00:10.790Z,163.80
2023-03-27T00:02:38.899Z,1594.97
2023-03-27T00:05:08.041Z,1815.73
2023-03-27T00:07:37.144Z,1222.97
2023-03-27T00:10:07.989Z,874.30
2023-03-27T00:12:35.935Z,1999.90
2023-03-27T00:15:04.066Z,1500.17
2023-03-27T00:17:32.047Z,230.03
2023-03-27T00:20:00.067Z,1676.40
2023-03-27T00:22:30.026Z,1999.90
2023-03-27T00:24:58.000Z,561.93
2023-03-27T00:27:27.314Z,1132.53
2023-03-27T00:29:56.155Z,1613.90
2023-03-27T00:32:24.098Z,1999.90
2023-03-27T00:34:52.066Z,1999.90
2023-03-27T00:37:19.989Z,1999.90
2023-03-27T00:39:50.078Z,160.17
2023-03-27T00:42:22.747Z,154.33
2023-03-27T00:44:53.968Z,1048.20
2023-03-27T00:47:30.934Z,98.73
2023-03-27T00:50:00.632Z,379.13
2023-03-27T00:52:29.560Z,217.00
2023-03-27T00:54:59.684Z,179.87
2023-03-27T00:57:28.152Z,180.93
2023-03-27T01:00:00.983Z,455.43
2023-03-27T01:02:29.682Z,184.50
2023-03-27T01:04:58.358Z,810.57
2023-03-27T01:07:26.333Z,1999.90
2023-03-27T01:09:54.383Z,1896.80
2023-03-27T01:12:35.993Z,1454.07
2023-03-27T01:15:26.221Z,1290.07
2023-03-27T01:18:04.748Z,1965.73
2023-03-27T01:21:22.501Z,1999.90
2023-03-27T01:24:38.585Z,1999.90
2023-03-27T01:27:11.290Z,1999.90
2023-03-27T01:29:49.160Z,1990.77
2023-03-27T01:32:53.468Z,1231.37
2023-03-27T01:35:54.242Z,1999.90
2023-03-27T01:39:06.407Z,1629.00
2023-03-27T01:41:42.060Z,1999.90
2023-03-27T01:44:16.052Z,1999.90
2023-03-27T01:46:51.232Z,1999.90
2023-03-27T01:49:26.317Z,1999.90
2023-03-27T01:51:59.541Z,1999.90
2023-03-27T01:54:31.672Z,931.73
2023-03-27T01:57:05.612Z,1999.90
2023-03-27T01:59:38.612Z,1999.90
2023-03-27T02:02:12.736Z,1999.90
2023-03-27T02:04:45.039Z,1999.90
2023-03-27T02:07:19.762Z,1973.53
2023-03-27T02:09:50.975Z,1613.77
2023-03-27T02:12:22.542Z,1999.90
2023-03-27T02:14:55.260Z,1055.33
2023-03-27T02:17:26.462Z,1999.90
2023-03-27T02:19:59.597Z,1447.47
2023-03-27T02:22:37.507Z,357.57
2023-03-27T02:25:27.692Z,726.73
2023-03-27T02:28:23.843Z,1118.40
2023-03-27T02:31:06.140Z,1999.90
2023-03-27T02:34:04.508Z,1999.90
2023-03-27T02:36:44.595Z,1999.90
2023-03-27T02:39:16.939Z,511.90
2023-03-27T02:41:51.068Z,1058.03
2023-03-27T02:44:28.974Z,1663.33
2023-03-27T02:47:03.658Z,304.17
2023-03-27T02:49:37.586Z,809.67
2023-03-27T02:52:10.652Z,566.23
2023-03-27T02:54:43.439Z,1999.90
2023-03-27T02:57:16.918Z,452.73
2023-03-27T02:59:51.475Z,1528.20
2023-03-27T03:02:24.766Z,395.93
2023-03-27T03:04:57.346Z,985.13
2023-03-27T03:07:26.638Z,1294.37
2023-03-27T03:09:54.871Z,1201.17
2023-03-27T03:12:23.232Z,431.33
2023-03-27T03:14:52.816Z,1731.57
2023-03-27T03:17:21.562Z,1362.37
2023-03-27T03:19:49.773Z,1735.87
2023-03-27T03:22:18.098Z,1880.30
2023-03-27T03:24:46.106Z,1999.90
2023-03-27T03:27:14.404Z,1999.90
2023-03-27T03:29:43.711Z,387.63
2023-03-27T03:32:13.055Z,1265.57
2023-03-27T03:34:41.730Z,1324.13
2023-03-27T03:37:10.749Z,266.93
2023-03-27T03:39:38.704Z,722.80
2023-03-27T03:42:06.902Z,429.93
2023-03-27T03:44:34.967Z,1812.90
2023-03-27T03:47:02.916Z,976.40
2023-03-27T03:49:32.235Z,1999.90
2023-03-27T03:52:03.176Z,1591.70
2023-03-27T03:54:32.865Z,1165.47
2023-03-27T03:57:01.041Z,328.03
2023-03-27T03:59:29.792Z,1999.90
2023-03-27T04:01:58.186Z,1999.90
2023-03-27T04:04:26.191Z,942.83
2023-03-27T04:06:58.215Z,381.90
2023-03-27T04:09:26.304Z,894.53
2023-03-27T04:11:54.262Z,291.97
2023-03-27T04:14:22.174Z,218.50
2023-03-27T04:16:51.324Z,301.47
2023-03-27T04:19:19.251Z,1641.97
2023-03-27T04:21:48.358Z,1626.43
2023-03-27T04:24:18.274Z,1832.83
2023-03-27T04:26:46.649Z,1152.83
2023-03-27T04:29:14.599Z,904.67
2023-03-27T04:31:46.577Z,794.13
2023-03-27T04:34:14.754Z,1999.90
2023-03-27T04:36:42.684Z,1501.70
2023-03-27T04:39:11.083Z,152.53
2023-03-27T04:41:40.573Z,207.87
2023-03-27T04:44:09.032Z,574.57
2023-03-27T04:46:37.090Z,1999.90
2023-03-27T04:49:06.078Z,642.77
2023-03-27T04:51:34.069Z,1206.47
2023-03-27T04:54:04.798Z,1123.13
2023-03-27T04:56:33.828Z,742.27
2023-03-27T04:59:04.750Z,463.13
2023-03-27T05:01:34.103Z,556.07
2023-03-27T05:04:03.893Z,256.50
2023-03-27T05:06:33.077Z,265.97
2023-03-27T05:09:01.069Z,233.33
2023-03-27T05:11:29.004Z,156.00
2023-03-27T05:13:56.938Z,135.90
2023-03-27T05:16:26.800Z,235.07
2023-03-27T05:18:54.795Z,205.67
2023-03-27T05:21:22.807Z,194.27
2023-03-27T05:23:50.756Z,185.30
2023-03-27T05:26:19.103Z,218.27
2023-03-27T05:28:47.175Z,149.57
2023-03-27T05:31:15.188Z,109.43
2023-03-27T05:33:45.629Z,147.00
2023-03-27T05:36:15.579Z,131.17
2023-03-27T05:38:44.391Z,122.90
2023-03-27T05:41:12.352Z,96.63
2023-03-27T05:43:40.298Z,140.30
2023-03-27T05:46:08.594Z,109.03
2023-03-27T05:48:36.584Z,117.10
2023-03-27T05:51:06.492Z,110.37
2023-03-27T05:53:36.261Z,87.40
2023-03-27T05:56:04.302Z,122.83
2023-03-27T05:58:32.263Z,187.03
2023-03-27T06:01:00.654Z,96.20
2023-03-27T06:03:30.279Z,64.53
2023-03-27T06:06:00.005Z,63.27
2023-03-27T06:08:29.787Z,104.30
2023-03-27T06:10:58.702Z,82.00
2023-03-27T06:13:26.812Z,63.77
2023-03-27T06:15:56.334Z,80.97
2023-03-27T06:18:24.949Z,137.17
2023-03-27T06:20:52.951Z,83.23
2023-03-27T06:23:20.957Z,96.67
2023-03-27T06:25:51.271Z,82.57
2023-03-27T06:28:19.894Z,97.93
2023-03-27T06:30:47.971Z,87.30
2023-03-27T06:33:16.857Z,144.00
2023-03-27T06:35:53.108Z,88.47
2023-03-27T06:38:21.944Z,90.43
2023-03-27T06:40:51.663Z,213.93
2023-03-27T06:43:22.366Z,283.37
2023-03-27T06:45:51.791Z,284.80
2023-03-27T06:48:22.295Z,241.33
2023-03-27T06:50:52.215Z,735.23
2023-03-27T06:55:53.018Z,1999.90
2023-03-27T06:58:21.814Z,1999.90
2023-03-27T07:00:51.256Z,1999.90
2023-03-27T07:03:21.248Z,1999.90
2023-03-27T07:05:49.709Z,1999.90
2023-03-27T07:08:23.125Z,1999.90
2023-03-27T07:13:25.359Z,1999.90
2023-03-27T07:15:53.417Z,1999.90
2023-03-27T07:18:22.658Z,1999.90
2023-03-27T07:20:51.364Z,1999.90
2023-03-27T07:23:19.364Z,1999.90
2023-03-27T07:25:49.948Z,1999.90
2023-03-27T07:28:19.633Z,1999.90
2023-03-27T07:30:47.618Z,1897.43
2023-03-27T07:33:15.886Z,1999.90
2023-03-27T07:35:44.009Z,1999.90
2023-03-27T07:38:12.459Z,1999.90
2023-03-27T07:40:41.000Z,1999.90
2023-03-27T07:43:09.262Z,1333.67
2023-03-27T07:45:39.007Z,1253.67
2023-03-27T07:48:08.469Z,1999.90
2023-03-27T07:50:37.642Z,1805.70
2023-03-27T07:53:07.300Z,1097.33
2023-03-27T07:55:37.698Z,1944.40
2023-03-27T07:58:06.821Z,1999.90
2023-03-27T08:00:36.439Z,891.80
2023-03-27T08:03:10.668Z,1999.90
2023-03-27T08:05:39.251Z,492.03
2023-03-27T08:08:07.265Z,1999.90
2023-03-27T08:10:35.407Z,1999.90
2023-03-27T08:13:03.364Z,1999.90
2023-03-27T08:15:31.322Z,1557.83
2023-03-27T08:18:00.446Z,789.17
2023-03-27T08:20:30.316Z,1601.90
2023-03-27T08:23:00.676Z,1999.90
2023-03-27T08:25:29.813Z,1999.90
2023-03-27T08:27:57.751Z,1999.90
2023-03-27T08:30:25.818Z,1999.90
2023-03-27T08:32:53.797Z,998.93
2023-03-27T08:35:21.945Z,571.83
2023-03-27T08:37:52.738Z,1999.90
2023-03-27T08:40:26.055Z,1067.43
2023-03-27T08:42:58.194Z,1999.43
2023-03-27T08:45:29.347Z,1813.90
2023-03-27T08:48:02.251Z,605.67
2023-03-27T08:50:37.428Z,242.40
2023-03-27T08:53:15.649Z,660.87
2023-03-27T08:55:46.193Z,1999.90
2023-03-27T08:58:19.641Z,1002.67
2023-03-27T09:00:54.680Z,484.63
2023-03-27T09:03:28.165Z,809.30
2023-03-27T09:06:00.430Z,1881.13
2023-03-27T09:08:42.173Z,1154.43
2023-03-27T09:11:22.141Z,1451.20
2023-03-27T09:13:52.479Z,1999.90
2023-03-27T09:16:26.761Z,1991.20
2023-03-27T09:19:02.191Z,1602.17
2023-03-27T09:21:39.255Z,1999.90
2023-03-27T09:24:15.612Z,1957.87
2023-03-27T09:26:44.480Z,1999.90
2023-03-27T09:29:20.012Z,1999.90
2023-03-27T09:31:49.704Z,736.17
2023-03-27T09:34:22.959Z,1024.27
2023-03-27T09:36:51.329Z,1999.90
2023-03-27T09:39:25.257Z,1999.90
2023-03-27T09:41:56.453Z,1999.90
2023-03-27T09:44:26.978Z,1999.90
2023-03-27T09:46:59.161Z,1143.33
2023-03-27T09:49:28.143Z,1999.90
2023-03-27T09:51:58.274Z,1999.90
2023-03-27T09:54:29.698Z,1999.90
2023-03-27T09:57:06.163Z,1999.90
2023-03-27T09:59:37.479Z,1999.90
2023-03-27T10:02:18.278Z,1999.90
2023-03-27T10:04:59.960Z,1999.90
2023-03-27T10:07:28.804Z,1999.90
2023-03-27T10:10:09.214Z,1999.90
2023-03-27T10:12:38.344Z,1999.90
2023-03-27T10:15:24.744Z,1999.90
2023-03-27T10:17:53.000Z,1999.90
2023-03-27T10:20:22.486Z,951.83
2023-03-27T10:22:54.869Z,1999.90
2023-03-27T10:25:32.078Z,1999.90
2023-03-27T10:28:11.760Z,1243.83
2023-03-27T10:30:40.540Z,1118.30
2023-03-27T10:33:09.267Z,89.17
2023-03-27T10:35:40.456Z,924.10
2023-03-27T10:38:14.173Z,1577.47
2023-03-27T10:40:49.795Z,479.40
2023-03-27T10:43:25.537Z,1684.87
2023-03-27T10:45:56.283Z,598.17
2023-03-27T10:48:40.477Z,764.23
2023-03-27T10:51:33.108Z,363.50
2023-03-27T10:54:12.953Z,1278.10
2023-03-27T10:56:51.316Z,524.70
2023-03-27T10:59:38.335Z,498.30
2023-03-27T11:02:16.849Z,333.60
2023-03-27T11:04:50.033Z,1946.00
2023-03-27T11:07:25.312Z,1999.90
2023-03-27T11:09:59.218Z,1999.90
2023-03-27T11:12:32.555Z,1999.90
2023-03-27T11:15:07.324Z,1999.90
2023-03-27T11:17:42.443Z,1999.90
2023-03-27T11:20:21.362Z,1089.70
2023-03-27T11:22:55.913Z,1316.00
2023-03-27T11:25:32.795Z,1468.27
2023-03-27T11:28:11.858Z,1977.40
2023-03-27T11:30:44.913Z,1925.17
2023-03-27T11:33:35.517Z,1999.90
2023-03-27T11:36:23.877Z,1999.90
2023-03-27T11:38:58.494Z,1999.90
2023-03-27T11:41:27.006Z,1356.50
2023-03-27T11:43:56.468Z,1999.90
2023-03-27T11:46:37.428Z,1442.00
2023-03-27T11:49:17.557Z,1999.90
2023-03-27T11:51:57.575Z,1999.90
2023-03-27T11:54:48.481Z,1999.90
2023-03-27T11:57:23.733Z,1999.90
2023-03-27T12:00:16.339Z,1999.90
2023-03-27T12:03:09.073Z,1999.90
2023-03-27T12:05:48.396Z,1999.90
2023-03-27T12:08:22.822Z,1999.90
2023-03-27T12:10:53.992Z,1999.90
2023-03-27T12:13:58.238Z,1999.90
2023-03-27T12:16:53.869Z,1999.90
2023-03-27T12:19:38.863Z,1999.90
2023-03-27T12:22:24.070Z,1999.90
2023-03-27T12:25:07.308Z,1999.90
2023-03-27T12:27:47.501Z,1999.90
2023-03-27T12:30:27.536Z,1999.90
2023-03-27T12:33:33.206Z,1999.90
2023-03-27T12:36:05.723Z,1999.90
2023-03-27T12:38:38.011Z,1999.90
2023-03-27T12:41:14.018Z,1999.90
2023-03-27T12:43:46.312Z,1999.90
2023-03-27T12:46:21.473Z,1999.90
2023-03-27T12:49:01.004Z,1999.90
2023-03-27T12:51:39.479Z,1522.23
2023-03-27T12:54:16.830Z,1999.90
2023-03-27T12:56:44.901Z,1999.90
2023-03-27T12:59:22.231Z,1999.90
2023-03-27T13:02:26.139Z,1324.90
2023-03-27T13:05:26.232Z,1999.90
2023-03-27T13:08:22.792Z,1999.90
2023-03-27T13:10:59.196Z,1999.90
2023-03-27T13:14:01.075Z,1999.90
2023-03-27T13:16:51.247Z,1999.90
2023-03-27T13:19:31.851Z,1999.90
2023-03-27T13:22:23.561Z,1999.90
2023-03-27T13:25:14.121Z,1999.90
2023-03-27T13:28:08.527Z,1999.90
2023-03-27T13:30:48.506Z,1615.60
2023-03-27T13:33:18.797Z,1999.90
2023-03-27T13:36:05.128Z,1999.90
2023-03-27T13:39:15.230Z,1999.90
2023-03-27T13:42:10.580Z,1999.90
2023-03-27T13:44:58.210Z,1999.90
2023-03-27T13:47:52.906Z,1999.90
2023-03-27T13:50:32.443Z,1999.90
2023-03-27T13:53:24.081Z,1999.90
2023-03-27T13:56:14.249Z,1999.90
2023-03-27T13:58:59.690Z,1999.90
2023-03-27T14:01:42.853Z,1999.90
2023-03-27T14:04:51.570Z,1999.90
2023-03-27T14:08:10.399Z,1999.90
2023-03-27T14:10:58.765Z,1999.90
2023-03-27T14:13:40.063Z,1999.90
2023-03-27T14:16:36.896Z,1999.90
2023-03-27T14:19:27.647Z,1999.90
2023-03-27T14:21:59.301Z,1999.90
2023-03-27T14:24:32.690Z,1999.90
2023-03-27T14:27:01.655Z,1999.90
2023-03-27T14:29:32.517Z,1999.90
2023-03-27T14:32:05.859Z,1999.90
2023-03-27T14:34:51.110Z,1999.90
2023-03-27T14:37:32.677Z,1999.90
2023-03-27T14:40:01.715Z,1999.90
2023-03-27T14:42:32.994Z,1999.90
2023-03-27T14:45:20.505Z,1999.90
2023-03-27T14:47:50.872Z,1999.90
2023-03-27T14:50:19.374Z,1999.90
2023-03-27T14:52:53.164Z,1999.90
2023-03-27T14:55:23.447Z,1999.90
2023-03-27T14:57:52.328Z,1999.90
2023-03-27T15:00:24.627Z,1999.90
2023-03-27T15:02:57.134Z,1999.90
2023-03-27T15:05:25.507Z,1999.90
2023-03-27T15:07:54.644Z,608.20
2023-03-27T15:10:25.976Z,1557.10
2023-03-27T15:12:54.744Z,1999.90
2023-03-27T15:15:27.537Z,1999.90
2023-03-27T15:17:55.976Z,474.67
2023-03-27T15:20:28.050Z,1999.90
2023-03-27T15:23:01.463Z,1999.90
2023-03-27T15:25:37.149Z,1999.33
2023-03-27T15:28:10.817Z,1999.90
2023-03-27T15:30:46.033Z,1955.23
2023-03-27T15:33:20.511Z,1999.90
2023-03-27T15:35:52.671Z,1999.90
2023-03-27T15:38:28.763Z,1999.90
2023-03-27T15:41:03.638Z,1999.90
2023-03-27T15:43:32.066Z,1999.90
2023-03-27T15:46:15.826Z,1999.90
2023-03-27T15:48:45.584Z,1999.90
2023-03-27T15:51:27.928Z,1999.90
2023-03-27T15:53:56.736Z,1999.90
2023-03-27T15:56:27.193Z,1999.90
2023-03-27T15:58:58.321Z,1999.90
2023-03-27T16:01:32.156Z,1999.90
2023-03-27T16:04:04.125Z,1999.90
2023-03-27T16:06:36.565Z,1999.90
2023-03-27T16:09:10.079Z,1999.90
2023-03-27T16:11:45.771Z,1999.90
2023-03-27T16:14:31.662Z,1999.90
2023-03-27T16:17:20.695Z,1999.90
2023-03-27T16:19:54.546Z,1999.90
2023-03-27T16:22:27.427Z,1999.90
2023-03-27T16:24:55.747Z,1999.90
2023-03-27T16:27:26.475Z,1999.90
2023-03-27T16:29:55.236Z,1999.90
2023-03-27T16:32:25.254Z,1999.90
2023-03-27T16:34:53.228Z,1999.90
2023-03-27T16:37:24.347Z,1999.90
2023-03-27T16:39:52.700Z,1999.90
2023-03-27T16:42:25.635Z,1999.90
2023-03-27T16:44:54.373Z,1999.90
2023-03-27T16:47:23.322Z,1999.90
2023-03-27T16:50:08.044Z,1999.90
2023-03-27T16:52:38.111Z,1999.90
2023-03-27T16:55:07.813Z,1999.90
2023-03-27T16:57:36.040Z,1999.90
2023-03-27T17:00:05.365Z,1999.90
2023-03-27T17:02:35.045Z,1999.90
2023-03-27T17:05:05.003Z,1999.90
2023-03-27T17:07:33.029Z,1999.90
2023-03-27T17:10:02.015Z,1761.27
2023-03-27T17:12:30.376Z,474.83
2023-03-27T17:14:58.386Z,1906.20
2023-03-27T17:17:27.546Z,1999.90
2023-03-27T17:19:56.082Z,286.73
2023-03-27T17:22:26.459Z,578.60
2023-03-27T17:24:57.315Z,175.77
2023-03-27T17:27:26.716Z,440.20
2023-03-27T17:29:55.647Z,133.23
2023-03-27T17:32:23.885Z,625.43
2023-03-27T17:34:52.233Z,507.13
2023-03-27T17:37:20.978Z,134.80
2023-03-27T17:39:50.841Z,235.40
2023-03-27T17:42:19.095Z,99.93
2023-03-27T17:44:47.028Z,133.10
2023-03-27T17:47:15.016Z,71.97
2023-03-27T17:49:43.302Z,147.07
2023-03-27T17:52:12.198Z,215.33
2023-03-27T17:54:40.432Z,47.50
2023-03-27T17:57:09.740Z,154.93
2023-03-27T17:59:38.485Z,209.00
2023-03-27T18:02:07.307Z,52.77
2023-03-27T18:04:36.457Z,150.17
2023-03-27T18:07:04.425Z,127.30
2023-03-27T18:09:32.565Z,103.23
2023-03-27T18:12:00.754Z,67.80
2023-03-27T18:14:30.072Z,50.03
2023-03-27T18:16:58.033Z,99.50
2023-03-27T18:19:26.027Z,45.27
2023-03-27T18:21:53.955Z,88.97
2023-03-27T18:24:22.010Z,51.17
2023-03-27T18:26:50.123Z,55.53
2023-03-27T18:29:18.083Z,52.50
2023-03-27T18:31:47.539Z,76.80
2023-03-27T18:34:15.664Z,51.37
2023-03-27T18:36:44.961Z,66.00
2023-03-27T18:39:12.915Z,107.83
2023-03-27T18:41:40.860Z,107.27
2023-03-27T18:44:08.807Z,81.53
2023-03-27T18:46:36.723Z,51.77
2023-03-27T18:49:17.347Z,148.17
2023-03-27T18:51:49.791Z,703.00
2023-03-27T18:54:17.744Z,1684.53
2023-03-27T18:56:45.767Z,1543.67
2023-03-27T18:59:14.490Z,1999.90
2023-03-27T19:01:42.511Z,1724.90
2023-03-27T19:04:13.986Z,1581.53
2023-03-27T19:06:43.066Z,295.63
2023-03-27T19:09:11.024Z,760.47
2023-03-27T19:11:39.766Z,597.50
2023-03-27T19:14:07.968Z,781.77
2023-03-27T19:16:35.989Z,137.93
2023-03-27T19:19:05.108Z,1795.33
2023-03-27T19:21:34.422Z,371.97
2023-03-27T19:24:02.402Z,177.13
2023-03-27T19:26:30.383Z,172.03
2023-03-27T19:28:58.323Z,315.73
2023-03-27T19:31:27.327Z,258.33
2023-03-27T19:33:55.372Z,141.17
2023-03-27T19:36:24.848Z,159.30
2023-03-27T19:38:54.186Z,105.27
2023-03-27T19:41:22.167Z,119.20
2023-03-27T19:43:50.133Z,191.93
2023-03-27T19:46:18.168Z,202.67
2023-03-27T19:48:49.620Z,222.27
2023-03-27T19:51:17.591Z,229.33
2023-03-27T19:53:45.646Z,266.40
2023-03-27T19:56:14.975Z,516.13
2023-03-27T19:58:42.908Z,204.57
2023-03-27T20:01:11.387Z,917.27
2023-03-27T20:03:39.933Z,931.87
2023-03-27T20:06:13.225Z,192.83
2023-03-27T20:08:42.503Z,439.97
2023-03-27T20:11:10.532Z,1650.97
2023-03-27T20:13:53.096Z,458.93
2023-03-27T20:16:24.826Z,240.70
2023-03-27T20:19:03.060Z,1424.23
2023-03-27T20:21:32.416Z,157.20
2023-03-27T20:24:00.512Z,264.23
2023-03-27T20:26:29.878Z,172.53
2023-03-27T20:28:59.165Z,163.47
2023-03-27T20:31:27.199Z,304.27
2023-03-27T20:33:55.215Z,144.50
2023-03-27T20:36:23.797Z,158.07
2023-03-27T20:38:52.850Z,693.83
2023-03-27T20:41:21.884Z,1427.80
2023-03-27T20:43:50.946Z,396.03
2023-03-27T20:46:20.492Z,226.57
2023-03-27T20:48:53.884Z,179.77
2023-03-27T20:51:24.637Z,230.77
2023-03-27T20:53:55.820Z,252.10
2023-03-27T20:56:24.969Z,453.47
2023-03-27T20:58:53.132Z,291.17
2023-03-27T21:01:27.639Z,161.27
2023-03-27T21:03:58.246Z,301.00
2023-03-27T21:06:26.645Z,415.87
2023-03-27T21:08:54.596Z,466.10
2023-03-27T21:11:22.571Z,410.83
2023-03-27T21:13:50.506Z,169.00
2023-03-27T21:16:18.505Z,417.53
2023-03-27T21:18:47.827Z,218.30
2023-03-27T21:21:15.845Z,273.00
2023-03-27T21:23:43.787Z,488.63
2023-03-27T21:26:11.738Z,230.87
2023-03-27T21:28:39.682Z,141.43
2023-03-27T21:31:08.852Z,268.10
2023-03-27T21:33:37.036Z,159.67
2023-03-27T21:36:07.361Z,306.90
2023-03-27T21:38:35.348Z,112.47
2023-03-27T21:41:03.571Z,338.23
2023-03-27T21:43:32.130Z,195.93
2023-03-27T21:46:02.191Z,312.93
2023-03-27T21:48:30.714Z,416.93
2023-03-27T21:51:02.127Z,245.57
2023-03-27T21:53:31.434Z,509.83
2023-03-27T21:55:59.585Z,331.27
2023-03-27T21:58:28.397Z,180.03
2023-03-27T22:00:58.129Z,142.30
2023-03-27T22:03:26.707Z,212.43
2023-03-27T22:06:08.433Z,349.90
2023-03-27T22:08:41.405Z,163.10
2023-03-27T22:11:09.581Z,118.10
2023-03-27T22:13:38.451Z,328.07
2023-03-27T22:16:09.696Z,117.70
2023-03-27T22:18:37.760Z,117.03
2023-03-27T22:21:17.691Z,386.67
2023-03-27T22:23:48.947Z,140.97
2023-03-27T22:26:17.182Z,159.47
2023-03-27T22:28:45.432Z,129.80
2023-03-27T22:31:13.620Z,194.20
2023-03-27T22:33:41.806Z,192.67
2023-03-27T22:36:12.261Z,211.67
2023-03-27T22:38:40.944Z,1053.23
2023-03-27T22:41:12.218Z,344.97
2023-03-27T22:43:40.231Z,419.97
2023-03-27T22:46:09.968Z,860.33
2023-03-27T22:48:38.146Z,205.33
2023-03-27T22:51:06.740Z,252.33
2023-03-27T22:53:35.305Z,218.93
2023-03-27T22:56:04.364Z,306.53
2023-03-27T22:58:33.863Z,191.70
2023-03-27T23:01:02.132Z,137.93
2023-03-27T23:03:30.331Z,886.17
2023-03-27T23:05:58.762Z,1999.90
2023-03-27T23:08:28.552Z,1999.90
2023-03-27T23:10:57.588Z,990.60
2023-03-27T23:13:26.087Z,381.27
2023-03-27T23:15:55.922Z,95.33
2023-03-27T23:18:25.372Z,237.00
2023-03-27T23:20:57.141Z,197.00
2023-03-27T23:23:26.402Z,303.27
2023-03-27T23:25:54.847Z,647.57
2023-03-27T23:28:23.111Z,975.97
2023-03-27T23:30:57.091Z,265.33
2023-03-27T23:33:25.486Z,401.50
2023-03-27T23:35:54.219Z,347.67
2023-03-27T23:38:22.247Z,312.33
2023-03-27T23:40:56.703Z,195.07
2023-03-27T23:43:26.082Z,1583.47
2023-03-27T23:45:56.603Z,336.33
2023-03-27T23:48:24.729Z,540.80
2023-03-27T23:50:53.065Z,307.40
2023-03-27T23:53:21.999Z,315.73
2023-03-27T23:55:50.322Z,144.70
2023-03-27T23:58:18.321Z,668.63
